createdAt,value
2023-02-17T00:01:24.315Z,23.28
2023-02-17T00:03:53.272Z,23.52
2023-02-17T00:06:25.220Z,23.56
2023-02-17T00:08:53.775Z,23.27
2023-02-17T00:11:22.033Z,23.18
2023-02-17T00:13:50.168Z,23.21
2023-02-17T00:16:20.286Z,23.54
2023-02-17T00:18:48.569Z,23.58
2023-02-17T00:21:19.202Z,23.61
2023-02-17T00:23:49.709Z,23.13
2023-02-17T00:26:18.425Z,23.08
2023-02-17T00:28:47.194Z,23.16
2023-02-17T00:31:18.822Z,23.23
2023-02-17T00:33:47.153Z,23.41
2023-02-17T00:36:17.854Z,23.38
2023-02-17T00:38:46.722Z,23.00
2023-02-17T00:41:17.339Z,23.50
2023-02-17T00:43:45.447Z,22.98
2023-02-17T00:46:13.636Z,23.50
2023-02-17T00:48:41.887Z,23.32
2023-02-17T00:51:10.023Z,23.42
2023-02-17T00:53:38.167Z,23.27
2023-02-17T00:56:09.080Z,23.39
2023-02-17T00:58:38.836Z,23.12
2023-02-17T01:01:06.826Z,23.05
2023-02-17T01:03:35.148Z,23.34
2023-02-17T01:06:07.572Z,22.83
2023-02-17T01:08:36.280Z,22.95
2023-02-17T01:11:04.547Z,23.08
2023-02-17T01:13:33.308Z,23.49
2023-02-17T01:16:02.765Z,23.14
2023-02-17T01:18:30.752Z,23.54
2023-02-17T01:20:58.695Z,23.46
2023-02-17T01:23:26.826Z,23.53
2023-02-17T01:25:54.859Z,23.58
2023-02-17T01:28:23.457Z,23.54
2023-02-17T01:30:51.508Z,23.23
2023-02-17T01:33:20.854Z,23.51
2023-02-17T01:35:48.872Z,23.52
2023-02-17T01:38:16.817Z,23.50
2023-02-17T01:40:48.920Z,23.32
2023-02-17T01:43:18.411Z,23.45
2023-02-17T01:45:53.024Z,23.52
2023-02-17T01:48:26.431Z,23.12
2023-02-17T01:51:01.303Z,23.68
2023-02-17T01:53:34.758Z,23.50
2023-02-17T01:56:03.974Z,23.58
2023-02-17T01:58:33.387Z,23.57
2023-02-17T02:01:04.389Z,23.65
2023-02-17T02:03:37.452Z,23.61
2023-02-17T02:06:09.966Z,23.54
2023-02-17T02:08:47.244Z,23.40
2023-02-17T02:11:15.188Z,22.96
2023-02-17T02:13:43.316Z,23.01
2023-02-17T02:16:19.544Z,23.39
2023-02-17T02:18:59.710Z,23.36
2023-02-17T02:22:05.077Z,23.35
2023-02-17T02:24:40.468Z,23.48
2023-02-17T02:27:30.547Z,23.39
2023-02-17T02:30:21.689Z,22.97
2023-02-17T02:33:16.773Z,23.34
2023-02-17T02:35:57.039Z,23.02
2023-02-17T02:38:30.208Z,23.41
2023-02-17T02:41:05.254Z,23.47
2023-02-17T02:43:33.733Z,23.52
2023-02-17T02:46:01.780Z,23.56
2023-02-17T02:48:31.881Z,23.08
2023-02-17T02:51:21.939Z,23.39
2023-02-17T02:53:59.350Z,23.15
2023-02-17T02:56:37.290Z,23.03
2023-02-17T02:59:19.026Z,23.53
2023-02-17T03:01:55.175Z,23.20
2023-02-17T03:04:36.262Z,23.10
2023-02-17T03:07:11.109Z,23.24
2023-02-17T03:09:39.625Z,23.51
2023-02-17T03:12:08.197Z,23.15
2023-02-17T03:14:39.436Z,23.62
2023-02-17T03:17:07.508Z,23.66
2023-02-17T03:19:37.099Z,23.53
2023-02-17T03:22:10.734Z,23.42
2023-02-17T03:24:38.710Z,23.31
2023-02-17T03:27:10.050Z,23.31
2023-02-17T03:29:38.520Z,23.59
2023-02-17T03:32:07.400Z,23.34
2023-02-17T03:34:37.202Z,23.58
2023-02-17T03:37:05.382Z,23.29
2023-02-17T03:39:33.356Z,23.12
2023-02-17T03:42:01.332Z,23.70
2023-02-17T03:44:29.310Z,23.61
2023-02-17T03:46:57.305Z,23.26
2023-02-17T03:49:25.356Z,23.47
2023-02-17T03:51:54.762Z,23.22
2023-02-17T03:54:22.774Z,23.47
2023-02-17T03:56:50.696Z,23.30
2023-02-17T03:59:18.815Z,23.11
2023-02-17T04:01:46.898Z,23.20
2023-02-17T04:04:14.918Z,23.03
2023-02-17T04:06:42.951Z,23.02
2023-02-17T04:09:12.366Z,22.90
2023-02-17T04:11:40.355Z,22.94
2023-02-17T04:14:08.339Z,23.09
2023-02-17T04:16:39.094Z,23.14
2023-02-17T04:19:07.153Z,23.48
2023-02-17T04:21:36.088Z,23.48
2023-02-17T04:24:04.851Z,23.03
2023-02-17T04:26:34.226Z,23.32
2023-02-17T04:29:04.675Z,23.00
2023-02-17T04:31:32.979Z,23.59
2023-02-17T04:34:00.941Z,23.26
2023-02-17T04:36:28.909Z,23.09
2023-02-17T04:38:56.957Z,23.44
2023-02-17T04:41:24.981Z,23.50
2023-02-17T04:43:54.376Z,23.04
2023-02-17T04:46:22.390Z,23.10
2023-02-17T04:48:50.406Z,23.21
2023-02-17T04:51:18.405Z,23.56
2023-02-17T04:53:46.385Z,23.09
2023-02-17T04:56:14.283Z,23.32
2023-02-17T04:58:42.415Z,23.10
2023-02-17T05:01:11.906Z,23.54
2023-02-17T05:03:39.953Z,23.25
2023-02-17T05:06:08.340Z,23.59
2023-02-17T05:08:36.329Z,23.12
2023-02-17T05:11:04.318Z,23.59
2023-02-17T05:13:33.212Z,23.42
2023-02-17T05:16:01.245Z,23.14
2023-02-17T05:18:30.766Z,23.55
2023-02-17T05:20:58.702Z,23.51
2023-02-17T05:23:26.659Z,23.53
2023-02-17T05:25:54.534Z,23.61
2023-02-17T05:28:22.543Z,23.48
2023-02-17T05:30:50.641Z,23.47
2023-02-17T05:33:18.670Z,23.37
2023-02-17T05:35:48.026Z,23.46
2023-02-17T05:38:16.048Z,22.97
2023-02-17T05:40:44.102Z,23.00
2023-02-17T05:43:12.138Z,23.03
2023-02-17T05:45:40.036Z,23.39
2023-02-17T05:48:07.984Z,23.10
2023-02-17T05:50:36.182Z,23.07
2023-02-17T05:53:05.655Z,23.28
2023-02-17T05:55:33.768Z,23.58
2023-02-17T05:58:01.872Z,23.32
2023-02-17T06:00:30.182Z,23.07
2023-02-17T06:02:58.320Z,23.50
2023-02-17T06:05:26.234Z,23.13
2023-02-17T06:07:54.210Z,23.04
2023-02-17T06:10:23.899Z,22.97
2023-02-17T06:12:52.010Z,23.30
2023-02-17T06:15:20.359Z,22.96
2023-02-17T06:17:48.313Z,23.02
2023-02-17T06:20:16.796Z,23.31
2023-02-17T06:22:45.029Z,23.49
2023-02-17T06:25:13.018Z,23.19
2023-02-17T06:27:44.076Z,23.03
2023-02-17T06:30:12.984Z,23.01
2023-02-17T06:32:40.974Z,23.04
2023-02-17T06:35:09.414Z,23.05
2023-02-17T06:37:37.616Z,23.24
2023-02-17T06:40:07.275Z,23.20
2023-02-17T06:42:35.275Z,23.12
2023-02-17T06:45:06.169Z,23.59
2023-02-17T06:47:34.288Z,23.56
2023-02-17T06:50:02.517Z,23.57
2023-02-17T06:52:30.522Z,23.62
2023-02-17T06:54:58.542Z,23.61
2023-02-17T06:57:26.544Z,23.25
2023-02-17T06:59:54.574Z,23.37
2023-02-17T07:02:23.987Z,23.46
2023-02-17T07:04:52.127Z,23.25
2023-02-17T07:07:20.240Z,23.52
2023-02-17T07:09:48.230Z,23.68
2023-02-17T07:12:16.360Z,23.65
2023-02-17T07:14:44.650Z,23.39
2023-02-17T07:17:12.638Z,23.41
2023-02-17T07:19:42.127Z,23.44
2023-02-17T07:22:10.114Z,23.25
2023-02-17T07:24:38.211Z,23.70
2023-02-17T07:27:06.384Z,23.68
2023-02-17T07:29:34.351Z,23.43
2023-02-17T07:32:02.355Z,23.25
2023-02-17T07:34:30.445Z,23.44
2023-02-17T07:36:59.729Z,23.78
2023-02-17T07:39:27.754Z,23.42
2023-02-17T07:42:00.631Z,23.90
2023-02-17T07:44:28.955Z,23.57
2023-02-17T07:46:56.890Z,24.01
2023-02-17T07:49:24.915Z,23.43
2023-02-17T07:51:52.900Z,23.51
2023-02-17T07:54:22.356Z,23.40
2023-02-17T07:56:50.271Z,23.50
2023-02-17T07:59:18.302Z,23.96
2023-02-17T08:01:46.347Z,24.02
2023-02-17T08:04:14.501Z,23.82
2023-02-17T08:06:42.475Z,24.05
2023-02-17T08:09:28.675Z,23.60
2023-02-17T08:12:15.845Z,24.04
2023-02-17T08:14:43.809Z,23.93
2023-02-17T08:17:11.743Z,23.97
2023-02-17T08:19:47.970Z,23.53
2023-02-17T08:22:17.300Z,23.89
2023-02-17T08:24:45.714Z,23.79
2023-02-17T08:27:16.019Z,23.55
2023-02-17T08:29:44.455Z,23.73
2023-02-17T08:32:12.768Z,23.68
2023-02-17T08:34:40.899Z,23.80
2023-02-17T08:37:09.540Z,23.46
2023-02-17T08:39:38.632Z,23.85
2023-02-17T08:42:07.541Z,23.80
2023-02-17T08:44:37.932Z,23.84
2023-02-17T08:47:07.283Z,23.88
2023-02-17T08:49:35.910Z,23.84
2023-02-17T08:52:04.209Z,23.72
2023-02-17T08:54:32.665Z,23.67
2023-02-17T08:57:00.607Z,23.70
2023-02-17T08:59:28.588Z,23.28
2023-02-17T09:01:58.573Z,23.81
2023-02-17T09:04:27.080Z,23.51
2023-02-17T09:06:57.288Z,23.76
2023-02-17T09:09:27.836Z,23.70
2023-02-17T09:11:57.120Z,23.52
2023-02-17T09:14:27.556Z,23.76
2023-02-17T09:16:57.862Z,23.70
2023-02-17T09:19:27.222Z,24.78
2023-02-17T09:21:55.260Z,25.49
2023-02-17T09:24:23.404Z,25.64
2023-02-17T09:26:51.510Z,25.75
2023-02-17T09:29:19.517Z,25.95
2023-02-17T09:31:47.513Z,26.23
2023-02-17T09:34:16.948Z,28.20
2023-02-17T09:36:45.370Z,29.21
2023-02-17T09:39:14.859Z,30.12
2023-02-17T09:41:47.316Z,30.24
2023-02-17T09:44:21.964Z,30.22
2023-02-17T09:47:02.118Z,31.07
2023-02-17T09:49:37.714Z,30.90
2023-02-17T09:52:12.031Z,31.36
2023-02-17T09:54:49.731Z,31.77
2023-02-17T09:57:21.811Z,32.23
2023-02-17T09:59:53.425Z,32.34
2023-02-17T10:02:28.846Z,32.50
2023-02-17T10:05:02.599Z,32.41
2023-02-17T10:07:36.248Z,32.17
2023-02-17T10:10:09.378Z,33.07
2023-02-17T10:12:41.642Z,32.57
2023-02-17T10:15:17.901Z,32.26
2023-02-17T10:17:52.821Z,31.91
2023-02-17T10:20:25.052Z,31.49
2023-02-17T10:22:56.873Z,31.85
2023-02-17T10:25:42.747Z,31.25
2023-02-17T10:28:18.570Z,30.66
2023-02-17T10:30:56.716Z,30.28
2023-02-17T10:33:32.443Z,29.81
2023-02-17T10:36:12.396Z,29.87
2023-02-17T10:38:50.391Z,29.20
2023-02-17T10:41:23.772Z,28.92
2023-02-17T10:43:52.378Z,28.74
2023-02-17T10:46:28.572Z,28.25
2023-02-17T10:48:58.681Z,28.00
2023-02-17T10:51:30.081Z,28.45
2023-02-17T10:54:03.628Z,28.42
2023-02-17T10:56:36.790Z,28.45
2023-02-17T10:59:08.956Z,28.25
2023-02-17T11:01:38.184Z,27.87
2023-02-17T11:04:08.411Z,27.78
2023-02-17T11:06:44.866Z,27.68
2023-02-17T11:09:21.796Z,27.39
2023-02-17T11:11:54.155Z,27.14
2023-02-17T11:14:27.478Z,27.22
2023-02-17T11:16:59.384Z,27.12
2023-02-17T11:19:30.688Z,26.89
2023-02-17T11:22:01.828Z,27.21
2023-02-17T11:24:31.320Z,26.72
2023-02-17T11:27:01.465Z,26.60
2023-02-17T11:29:31.430Z,27.22
2023-02-17T11:32:01.318Z,26.66
2023-02-17T11:34:33.047Z,26.62
2023-02-17T11:37:07.256Z,26.26
2023-02-17T11:39:39.540Z,26.43
2023-02-17T11:42:16.756Z,25.95
2023-02-17T11:44:44.788Z,26.07
2023-02-17T11:47:23.403Z,26.15
2023-02-17T11:50:31.738Z,25.91
2023-02-17T11:53:24.262Z,25.63
2023-02-17T11:56:06.688Z,25.55
2023-02-17T11:58:52.414Z,25.94
2023-02-17T12:01:35.540Z,25.84
2023-02-17T12:04:23.880Z,25.85
2023-02-17T12:07:18.858Z,25.82
2023-02-17T12:09:53.069Z,25.84
2023-02-17T12:12:27.624Z,25.33
2023-02-17T12:15:04.489Z,25.82
2023-02-17T12:17:45.056Z,25.47
2023-02-17T12:20:32.790Z,25.49
2023-02-17T12:23:17.161Z,25.12
2023-02-17T12:25:52.152Z,25.29
2023-02-17T12:28:39.148Z,25.17
2023-02-17T12:31:17.925Z,25.53
2023-02-17T12:33:57.662Z,25.08
2023-02-17T12:36:31.794Z,25.36
2023-02-17T12:39:03.994Z,25.21
2023-02-17T12:41:38.472Z,25.25
2023-02-17T12:44:13.633Z,25.12
2023-02-17T12:46:44.874Z,24.68
2023-02-17T12:49:18.976Z,25.07
2023-02-17T12:51:51.882Z,24.95
2023-02-17T12:54:27.951Z,24.69
2023-02-17T12:57:14.660Z,24.76
2023-02-17T12:59:44.795Z,24.59
2023-02-17T13:02:15.049Z,24.52
2023-02-17T13:04:44.911Z,24.80
2023-02-17T13:07:27.522Z,24.91
2023-02-17T13:09:57.665Z,24.53
2023-02-17T13:12:41.523Z,24.88
2023-02-17T13:15:29.277Z,24.86
2023-02-17T13:18:01.351Z,24.81
2023-02-17T13:20:45.673Z,24.70
2023-02-17T13:23:15.949Z,24.55
2023-02-17T13:25:44.013Z,24.47
2023-02-17T13:28:36.240Z,24.79
2023-02-17T13:31:17.652Z,24.64
2023-02-17T13:33:51.349Z,24.68
2023-02-17T13:36:23.320Z,24.97
2023-02-17T13:39:01.645Z,24.54
2023-02-17T13:41:34.537Z,25.13
2023-02-17T13:44:26.415Z,25.27
2023-02-17T13:46:57.396Z,24.86
2023-02-17T13:49:27.740Z,24.97
2023-02-17T13:51:55.924Z,24.81
2023-02-17T13:54:24.346Z,24.78
2023-02-17T13:56:53.678Z,25.07
2023-02-17T13:59:27.901Z,25.37
2023-02-17T14:01:56.263Z,24.78
2023-02-17T14:04:27.804Z,24.84
2023-02-17T14:06:59.549Z,24.65
2023-02-17T14:09:30.676Z,24.63
2023-02-17T14:12:00.478Z,24.73
2023-02-17T14:14:32.103Z,24.42
2023-02-17T14:17:03.092Z,24.50
2023-02-17T14:19:42.267Z,24.54
2023-02-17T14:22:25.300Z,24.53
2023-02-17T14:25:00.837Z,24.38
2023-02-17T14:27:28.902Z,24.63
2023-02-17T14:29:58.508Z,24.25
2023-02-17T14:32:28.731Z,24.59
2023-02-17T14:35:08.605Z,24.53
2023-02-17T14:37:37.017Z,24.56
2023-02-17T14:40:06.595Z,24.07
2023-02-17T14:42:34.650Z,24.17
2023-02-17T14:45:04.191Z,24.43
2023-02-17T14:47:32.183Z,24.78
2023-02-17T14:50:00.163Z,24.84
2023-02-17T14:52:28.262Z,24.72
2023-02-17T14:54:56.350Z,24.46
2023-02-17T14:57:27.975Z,24.40
2023-02-17T14:59:57.764Z,24.49
2023-02-17T15:02:27.082Z,24.47
2023-02-17T15:04:55.147Z,24.47
2023-02-17T15:07:24.124Z,24.40
2023-02-17T15:09:52.195Z,24.43
2023-02-17T15:12:22.421Z,24.85
2023-02-17T15:14:50.452Z,25.25
2023-02-17T15:17:18.484Z,25.37
2023-02-17T15:19:49.325Z,25.33
2023-02-17T15:22:17.339Z,25.37
2023-02-17T15:24:45.286Z,25.16
2023-02-17T15:27:15.103Z,25.16
2023-02-17T15:29:43.154Z,25.45
2023-02-17T15:32:18.939Z,25.01
2023-02-17T15:34:48.485Z,25.27
2023-02-17T15:37:16.564Z,25.30
2023-02-17T15:39:44.522Z,24.68
2023-02-17T15:42:15.435Z,24.65
2023-02-17T15:44:46.695Z,24.69
2023-02-17T15:47:17.678Z,24.54
2023-02-17T15:49:46.399Z,24.67
2023-02-17T15:52:16.623Z,24.53
2023-02-17T15:54:45.490Z,24.82
2023-02-17T15:57:21.975Z,24.84
2023-02-17T15:59:50.225Z,24.90
2023-02-17T16:02:21.787Z,24.79
2023-02-17T16:04:50.309Z,24.97
2023-02-17T16:07:19.646Z,24.48
2023-02-17T16:09:47.627Z,24.63
2023-02-17T16:12:26.384Z,24.53
2023-02-17T16:14:55.020Z,24.84
2023-02-17T16:17:23.272Z,24.76
2023-02-17T16:19:51.329Z,24.83
2023-02-17T16:22:20.682Z,24.47
2023-02-17T16:24:48.768Z,24.49
2023-02-17T16:27:17.907Z,24.58
2023-02-17T16:29:45.902Z,24.70
2023-02-17T16:32:14.586Z,24.33
2023-02-17T16:34:42.887Z,24.60
2023-02-17T16:37:15.851Z,24.81
2023-02-17T16:39:45.662Z,24.69
2023-02-17T16:42:14.919Z,24.41
2023-02-17T16:44:44.264Z,24.79
2023-02-17T16:47:20.661Z,24.88
2023-02-17T16:49:50.435Z,24.55
2023-02-17T16:52:24.795Z,24.57
2023-02-17T16:54:54.608Z,24.57
2023-02-17T16:57:23.425Z,25.02
2023-02-17T16:59:51.680Z,24.75
2023-02-17T17:02:21.626Z,24.95
2023-02-17T17:04:49.798Z,24.67
2023-02-17T17:07:18.162Z,24.63
2023-02-17T17:10:06.809Z,24.85
2023-02-17T17:12:36.238Z,24.97
2023-02-17T17:15:04.701Z,25.09
2023-02-17T17:17:40.188Z,24.66
2023-02-17T17:20:09.931Z,24.68
2023-02-17T17:22:37.934Z,24.91
2023-02-17T17:25:06.555Z,24.89
2023-02-17T17:27:36.941Z,24.76
2023-02-17T17:30:06.318Z,24.71
2023-02-17T17:32:34.535Z,25.08
2023-02-17T17:35:02.858Z,25.00
2023-02-17T17:37:30.774Z,25.20
2023-02-17T17:39:58.771Z,24.72
2023-02-17T17:42:26.864Z,24.98
2023-02-17T17:44:56.169Z,24.59
2023-02-17T17:47:29.967Z,24.77
2023-02-17T17:49:58.849Z,24.70
2023-02-17T17:52:26.955Z,24.89
2023-02-17T17:54:54.940Z,25.15
2023-02-17T17:57:23.283Z,25.14
2023-02-17T17:59:51.313Z,25.18
2023-02-17T18:02:20.660Z,24.66
2023-02-17T18:04:48.906Z,24.83
2023-02-17T18:07:17.144Z,24.67
2023-02-17T18:09:45.353Z,24.96
2023-02-17T18:12:17.059Z,24.81
2023-02-17T18:14:45.916Z,24.70
2023-02-17T18:17:18.080Z,25.06
2023-02-17T18:19:48.849Z,24.82
2023-02-17T18:22:17.193Z,25.23
2023-02-17T18:24:47.374Z,25.30
2023-02-17T18:27:15.717Z,24.88
2023-02-17T18:29:44.445Z,25.25
2023-02-17T18:32:12.569Z,25.25
2023-02-17T18:34:40.567Z,25.31
2023-02-17T18:37:09.953Z,25.33
2023-02-17T18:39:38.012Z,25.36
2023-02-17T18:42:06.754Z,25.20
2023-02-17T18:44:35.026Z,24.90
2023-02-17T18:47:02.988Z,25.08
2023-02-17T18:49:31.122Z,25.48
2023-02-17T18:51:59.256Z,25.09
2023-02-17T18:54:28.740Z,25.00
2023-02-17T18:56:56.712Z,24.92
2023-02-17T18:59:24.683Z,25.24
2023-02-17T19:01:52.570Z,25.41
2023-02-17T19:04:20.618Z,25.10
2023-02-17T19:06:48.619Z,25.19
2023-02-17T19:09:16.671Z,25.46
2023-02-17T19:11:46.268Z,25.23
2023-02-17T19:14:14.458Z,25.51
2023-02-17T19:16:42.423Z,25.22
2023-02-17T19:19:10.426Z,25.05
2023-02-17T19:21:38.297Z,25.57
2023-02-17T19:24:06.469Z,25.43
2023-02-17T19:26:34.563Z,25.27
2023-02-17T19:29:04.115Z,25.55
2023-02-17T19:31:32.377Z,25.48
2023-02-17T19:34:00.513Z,25.35
2023-02-17T19:36:28.775Z,25.31
2023-02-17T19:38:58.488Z,25.18
2023-02-17T19:41:26.575Z,25.55
2023-02-17T19:43:54.572Z,25.41
2023-02-17T19:46:25.703Z,25.49
2023-02-17T19:48:53.826Z,25.51
2023-02-17T19:51:22.090Z,25.66
2023-02-17T19:53:50.174Z,25.56
2023-02-17T19:56:20.017Z,25.54
2023-02-17T19:58:49.014Z,25.70
2023-02-17T20:01:19.517Z,25.36
2023-02-17T20:03:49.230Z,25.41
2023-02-17T20:06:21.047Z,25.53
2023-02-17T20:08:54.071Z,25.27
2023-02-17T20:11:22.314Z,25.38
2023-02-17T20:13:50.380Z,25.43
2023-02-17T20:16:19.125Z,25.36
2023-02-17T20:18:50.597Z,25.67
2023-02-17T20:21:22.253Z,25.38
2023-02-17T20:23:50.540Z,25.60
2023-02-17T20:26:22.116Z,25.53
2023-02-17T20:28:50.623Z,25.65
2023-02-17T20:31:19.409Z,25.62
2023-02-17T20:33:49.311Z,25.73
2023-02-17T20:36:18.142Z,25.89
2023-02-17T20:38:46.420Z,25.89
2023-02-17T20:41:17.412Z,25.64
2023-02-17T20:43:46.270Z,25.45
2023-02-17T20:46:15.822Z,25.47
2023-02-17T20:48:43.857Z,25.53
2023-02-17T20:51:13.174Z,25.56
2023-02-17T20:53:41.175Z,25.78
2023-02-17T20:56:14.400Z,25.80
2023-02-17T20:58:43.087Z,25.58
2023-02-17T21:01:11.753Z,26.06
2023-02-17T21:03:40.170Z,25.62
2023-02-17T21:06:20.969Z,25.94
2023-02-17T21:08:51.669Z,25.53
2023-02-17T21:11:19.868Z,26.05
2023-02-17T21:13:48.879Z,25.87
2023-02-17T21:16:19.079Z,25.81
2023-02-17T21:18:47.514Z,25.87
2023-02-17T21:21:16.573Z,25.66
2023-02-17T21:23:46.065Z,25.76
2023-02-17T21:26:14.786Z,25.88
2023-02-17T21:28:42.966Z,25.92
2023-02-17T21:31:11.140Z,25.70
2023-02-17T21:33:42.081Z,26.12
2023-02-17T21:36:11.423Z,26.30
2023-02-17T21:38:40.239Z,26.09
2023-02-17T21:41:11.633Z,25.83
2023-02-17T21:43:58.310Z,26.03
2023-02-17T21:46:26.852Z,25.98
2023-02-17T21:48:56.543Z,25.58
2023-02-17T21:51:24.828Z,25.73
2023-02-17T21:53:53.604Z,25.70
2023-02-17T21:56:24.131Z,25.46
2023-02-17T21:58:53.446Z,25.60
2023-02-17T22:01:22.415Z,25.67
2023-02-17T22:03:50.611Z,25.15
2023-02-17T22:06:20.599Z,25.48
2023-02-17T22:08:48.573Z,25.63
2023-02-17T22:11:18.219Z,25.52
2023-02-17T22:13:48.234Z,25.47
2023-02-17T22:16:16.760Z,25.42
2023-02-17T22:18:44.771Z,25.55
2023-02-17T22:21:15.005Z,25.53
2023-02-17T22:23:43.441Z,25.11
2023-02-17T22:26:14.034Z,25.37
2023-02-17T22:28:42.583Z,25.13
2023-02-17T22:31:13.729Z,25.28
2023-02-17T22:33:41.836Z,24.85
2023-02-17T22:36:11.740Z,24.99
2023-02-17T22:38:39.846Z,24.69
2023-02-17T22:41:08.736Z,24.88
2023-02-17T22:43:37.456Z,24.81
2023-02-17T22:46:07.293Z,24.99
2023-02-17T22:48:40.051Z,25.15
2023-02-17T22:51:09.643Z,25.39
2023-02-17T22:53:37.949Z,25.73
2023-02-17T22:56:07.510Z,25.82
2023-02-17T22:58:36.543Z,25.78
2023-02-17T23:01:05.764Z,25.67
2023-02-17T23:03:34.249Z,25.79
2023-02-17T23:06:05.347Z,25.30
2023-02-17T23:08:33.793Z,25.18
2023-02-17T23:11:05.322Z,25.51
2023-02-17T23:13:33.869Z,25.47
2023-02-17T23:16:02.310Z,25.46
2023-02-17T23:18:32.151Z,25.19
2023-02-17T23:21:01.424Z,25.49
2023-02-17T23:23:30.737Z,25.44
2023-02-17T23:25:58.660Z,25.63
2023-02-17T23:28:27.340Z,25.09
2023-02-17T23:30:55.307Z,25.56
2023-02-17T23:33:25.294Z,25.44
2023-02-17T23:35:53.260Z,25.10
2023-02-17T23:38:22.732Z,25.40
2023-02-17T23:40:53.315Z,25.56
2023-02-17T23:43:21.684Z,25.11
2023-02-17T23:45:50.291Z,25.53
2023-02-17T23:48:18.373Z,25.66
2023-02-17T23:50:46.426Z,25.26
2023-02-17T23:53:15.694Z,25.32
2023-02-17T23:55:43.662Z,25.71
2023-02-17T23:58:13.174Z,25.75
